Time;durP1;ratioP1;P1;durP2;ratioP2;P2;SDS_P1;SDS_P2;PMS_P1;PMS_P2;Temp;Humidity;BMP_temperature;BMP_pressure;BME280_temperature;BME280_humidity;BME280_pressure;Samples;Min_cycle;Max_cycle;Signal;HPM_P1;HPM_P2
2021/11/20 00:00:56;;;;;;;7.63;5.57;;;13.40;99.90;;;;;;5037440;28;20425;-51
2021/11/20 00:03:23;;;;;;;9.93;5.90;;;13.50;99.90;;;;;;5055200;28;20479;-51
2021/11/20 00:05:53;;;;;;;17.70;5.67;;;13.40;99.90;;;;;;5037073;28;20481;-51
2021/11/20 00:08:22;;;;;;;13.53;5.77;;;13.40;99.90;;;;;;5054613;28;20818;-51
2021/11/20 00:10:52;;;;;;;19.90;6.93;;;13.40;99.90;;;;;;5055149;28;20428;-52
2021/11/20 00:13:23;;;;;;;10.93;5.70;;;13.50;99.90;;;;;;5055128;28;20822;-51
2021/11/20 00:15:54;;;;;;;9.33;6.30;;;13.40;99.90;;;;;;5037118;28;20445;-52
2021/11/20 00:18:22;;;;;;;10.00;6.17;;;13.50;99.90;;;;;;5054597;28;20526;-51
2021/11/20 00:20:53;;;;;;;10.63;6.43;;;13.70;99.90;;;;;;5036990;28;20416;-52
2021/11/20 00:23:23;;;;;;;11.90;6.07;;;13.40;99.90;;;;;;5036803;28;20417;-51
2021/11/20 00:25:52;;;;;;;7.10;6.20;;;13.40;99.90;;;;;;5037078;28;20510;-51
2021/11/20 00:28:29;;;;;;;8.00;6.30;;;13.50;99.90;;;;;;5036601;28;20453;-52
2021/11/20 00:30:59;;;;;;;6.70;5.73;;;13.50;99.90;;;;;;5036864;28;20474;-51
2021/11/20 00:33:31;;;;;;;9.47;6.90;;;13.50;99.90;;;;;;5036715;28;20530;-51
2021/11/20 00:36:01;;;;;;;12.93;6.10;;;13.50;99.90;;;;;;5037058;28;20485;-51
2021/11/20 00:38:30;;;;;;;7.97;6.50;;;13.50;99.90;;;;;;5054246;28;20827;-51
2021/11/20 00:41:04;;;;;;;11.87;6.87;;;13.50;99.90;;;;;;5036618;28;20428;-51
2021/11/20 00:43:33;;;;;;;10.47;6.40;;;13.60;99.90;;;;;;5054643;28;20468;-51
2021/11/20 00:46:00;;;;;;;10.57;6.90;;;13.60;99.90;;;;;;5036295;28;20542;-53
2021/11/20 00:48:28;;;;;;;9.60;6.03;;;13.40;99.90;;;;;;5036135;28;20965;-53
2021/11/20 00:51:04;;;;;;;9.60;5.97;;;13.40;99.90;;;;;;5054615;28;20471;-50
2021/11/20 00:53:33;;;;;;;10.97;6.57;;;13.50;99.90;;;;;;5036845;28;20457;-51
2021/11/20 00:56:00;;;;;;;8.83;6.60;;;13.50;99.90;;;;;;5036670;28;20450;-52
2021/11/20 00:58:28;;;;;;;9.33;6.97;;;13.70;99.90;;;;;;5054151;28;20462;-52
2021/11/20 01:01:00;;;;;;;9.37;6.27;;;13.50;99.90;;;;;;5036149;28;20494;-51
2021/11/20 01:03:29;;;;;;;17.27;7.13;;;13.50;99.90;;;;;;5035198;28;20450;-52
2021/11/20 01:05:57;;;;;;;13.90;6.00;;;13.50;99.90;;;;;;5036614;28;20464;-51
2021/11/20 01:08:27;;;;;;;7.40;5.97;;;13.30;99.90;;;;;;5035756;28;20560;-50
2021/11/20 01:11:00;;;;;;;15.13;6.23;;;13.70;99.90;;;;;;5036333;28;20464;-51
2021/11/20 01:13:28;;;;;;;13.37;6.90;;;13.50;99.90;;;;;;5036264;28;20996;-51
2021/11/20 01:16:00;;;;;;;8.50;6.13;;;13.40;99.90;;;;;;5035723;28;20454;-52
2021/11/20 01:18:30;;;;;;;10.30;6.07;;;13.40;99.90;;;;;;5035480;28;20531;-52
2021/11/20 01:21:09;;;;;;;12.60;7.00;;;13.50;99.90;;;;;;5036044;28;20529;-52
2021/11/20 01:23:39;;;;;;;11.70;5.57;;;13.60;99.90;;;;;;5035985;28;20454;-52
2021/11/20 01:26:11;;;;;;;8.50;5.60;;;13.40;99.90;;;;;;5035905;28;20447;-51
2021/11/20 01:28:45;;;;;;;12.90;6.03;;;13.30;99.90;;;;;;5035583;28;21014;-51
2021/11/20 01:31:23;;;;;;;8.20;6.40;;;13.40;99.90;;;;;;5036004;28;20452;-51
2021/11/20 01:33:51;;;;;;;12.30;6.10;;;13.40;99.90;;;;;;5053821;28;20426;-51
2021/11/20 01:36:22;;;;;;;14.37;6.50;;;13.50;99.90;;;;;;5035796;28;20454;-52
2021/11/20 01:38:50;;;;;;;10.60;5.90;;;13.40;99.90;;;;;;5035281;28;20862;-51
2021/11/20 01:41:25;;;;;;;11.10;6.23;;;13.40;99.90;;;;;;5035686;28;20486;-52
2021/11/20 01:44:10;;;;;;;7.67;5.60;;;13.50;99.90;;;;;;5035481;28;20516;-51
2021/11/20 01:46:44;;;;;;;8.60;5.40;;;13.40;99.90;;;;;;5035122;28;20525;-51
2021/11/20 01:49:17;;;;;;;7.27;5.70;;;13.40;99.90;;;;;;5034813;28;20996;-51
2021/11/20 01:51:49;;;;;;;12.10;6.47;;;13.30;99.90;;;;;;5035233;28;20454;-52
2021/11/20 01:54:28;;;;;;;9.27;5.10;;;13.40;99.90;;;;;;5035451;28;20866;-51
2021/11/20 01:57:18;;;;;;;5.87;4.90;;;13.40;99.90;;;;;;5053192;28;20569;-52
2021/11/20 01:59:54;;;;;;;6.80;5.10;;;13.40;99.90;;;;;;5034949;28;20520;-52
2021/11/20 02:02:57;;;;;;;9.43;5.67;;;13.40;99.90;;;;;;5053063;28;20937;-52
2021/11/20 02:05:46;;;;;;;11.30;5.33;;;13.40;99.90;;;;;;5035070;28;20457;-51
2021/11/20 02:08:26;;;;;;;7.97;5.47;;;13.30;99.90;;;;;;5034812;28;20581;-52
2021/11/20 02:11:00;;;;;;;7.23;5.20;;;13.30;99.90;;;;;;5034966;28;20552;-50
2021/11/20 02:13:29;;;;;;;5.60;4.30;;;13.30;99.90;;;;;;5034909;28;21025;-52
2021/11/20 02:16:02;;;;;;;11.30;5.37;;;13.40;99.90;;;;;;5034852;28;20504;-52
2021/11/20 02:18:34;;;;;;;7.10;4.37;;;13.30;99.90;;;;;;5034358;28;20485;-52
2021/11/20 02:21:09;;;;;;;6.70;4.20;;;13.40;99.90;;;;;;5035005;28;20445;-52
2021/11/20 02:23:40;;;;;;;11.47;4.93;;;13.30;99.90;;;;;;5034959;28;20522;-51
2021/11/20 02:26:08;;;;;;;12.93;5.10;;;13.30;99.90;;;;;;5034794;28;21198;-52
2021/11/20 02:29:06;;;;;;;9.77;4.43;;;13.20;99.90;;;;;;5048991;28;20458;-51
2021/11/20 02:31:50;;;;;;;4.77;4.17;;;13.30;99.90;;;;;;5034757;28;20424;-51
2021/11/20 02:34:21;;;;;;;6.67;4.10;;;13.50;99.90;;;;;;5034635;28;20512;-51
2021/11/20 02:36:49;;;;;;;7.60;4.97;;;13.30;99.90;;;;;;5034616;28;20417;-51
2021/11/20 02:39:19;;;;;;;6.70;4.13;;;13.30;99.90;;;;;;5034282;28;20577;-51
2021/11/20 02:41:49;;;;;;;5.77;3.83;;;13.30;99.90;;;;;;5034266;28;20802;-52
2021/11/20 02:44:19;;;;;;;4.27;3.37;;;13.30;99.90;;;;;;5052875;28;20433;-51
2021/11/20 02:46:51;;;;;;;5.50;3.60;;;13.10;99.90;;;;;;5034332;28;20474;-51
2021/11/20 02:49:18;;;;;;;6.03;4.40;;;13.50;99.90;;;;;;5034197;28;20817;-51
2021/11/20 02:52:08;;;;;;;6.63;3.80;;;13.60;99.90;;;;;;5034656;28;20458;-50
2021/11/20 02:54:35;;;;;;;4.83;3.30;;;13.30;99.90;;;;;;5034449;28;20459;-50
2021/11/20 02:57:06;;;;;;;7.90;3.67;;;12.90;99.90;;;;;;5034258;28;20453;-53
2021/11/20 02:59:34;;;;;;;4.50;3.73;;;13.30;99.90;;;;;;5033951;28;20513;-52
2021/11/20 03:02:03;;;;;;;4.37;3.53;;;13.40;99.90;;;;;;5033938;28;20511;-52
2021/11/20 03:04:30;;;;;;;7.07;3.77;;;13.30;99.90;;;;;;5034197;28;20432;-52
2021/11/20 03:06:58;;;;;;;7.80;3.60;;;12.90;99.90;;;;;;5051954;28;20481;-52
2021/11/20 03:09:28;;;;;;;5.30;3.80;;;13.20;99.90;;;;;;5033798;28;21048;-51
2021/11/20 03:11:59;;;;;;;5.93;3.70;;;13.20;99.90;;;;;;5034462;28;20461;-52
2021/11/20 03:14:27;;;;;;;4.60;3.23;;;13.30;99.90;;;;;;5034250;28;20460;-51
2021/11/20 03:16:56;;;;;;;4.90;4.00;;;13.50;99.90;;;;;;5033863;28;20426;-51
2021/11/20 03:19:27;;;;;;;6.13;3.40;;;13.30;99.90;;;;;;5033287;28;20489;-52
2021/11/20 03:21:57;;;;;;;4.00;3.70;;;13.30;99.90;;;;;;5033825;28;20460;-52
2021/11/20 03:24:26;;;;;;;5.10;3.90;;;13.00;99.90;;;;;;5034060;28;20454;-51
2021/11/20 03:26:57;;;;;;;7.80;3.60;;;13.50;99.90;;;;;;5033503;28;20472;-51
2021/11/20 03:29:25;;;;;;;6.30;3.63;;;13.30;99.90;;;;;;5033847;28;20887;-52
2021/11/20 03:31:55;;;;;;;4.87;3.20;;;13.10;99.90;;;;;;5033564;28;20474;-52
2021/11/20 03:34:25;;;;;;;5.23;3.90;;;13.00;99.90;;;;;;5034061;28;20460;-52
2021/11/20 03:36:53;;;;;;;7.47;3.50;;;13.30;99.90;;;;;;5033692;28;20422;-51
2021/11/20 03:39:25;;;;;;;5.83;4.30;;;13.00;99.90;;;;;;5033366;28;21048;-51
2021/11/20 03:41:54;;;;;;;4.50;3.30;;;13.70;99.90;;;;;;5033757;28;20454;-51
2021/11/20 03:44:21;;;;;;;6.20;3.77;;;13.30;99.90;;;;;;5033783;28;20553;-51
2021/11/20 03:46:51;;;;;;;4.77;3.23;;;13.10;99.90;;;;;;5033690;28;20455;-51
2021/11/20 03:49:19;;;;;;;8.60;4.50;;;12.60;99.90;;;;;;5033409;28;20532;-52
2021/11/20 03:51:47;;;;;;;5.57;4.00;;;13.10;99.90;;;;;;5051494;28;21016;-51
2021/11/20 03:54:14;;;;;;;8.63;4.37;;;13.20;99.90;;;;;;5033578;28;20555;-52
2021/11/20 03:56:42;;;;;;;9.47;6.47;;;12.80;99.90;;;;;;5033392;28;21059;-51
2021/11/20 03:59:09;;;;;;;9.20;4.20;;;13.10;99.90;;;;;;5033118;28;20505;-51
2021/11/20 04:01:37;;;;;;;7.03;3.90;;;13.60;99.90;;;;;;5033709;28;20492;-53
2021/11/20 04:04:05;;;;;;;5.70;3.83;;;13.50;99.90;;;;;;5033599;28;20461;-51
2021/11/20 04:06:34;;;;;;;5.03;3.57;;;13.10;99.90;;;;;;5033417;28;20845;-52
2021/11/20 04:09:12;;;;;;;6.07;3.97;;;13.20;99.90;;;;;;5033034;28;20529;-52
2021/11/20 04:11:42;;;;;;;9.00;4.00;;;13.10;99.90;;;;;;5033489;28;20493;-52
2021/11/20 04:14:10;;;;;;;6.87;3.83;;;12.90;99.90;;;;;;5033457;28;20543;-52
2021/11/20 04:16:37;;;;;;;5.53;4.43;;;13.00;99.90;;;;;;5033274;28;20543;-52
2021/11/20 04:19:04;;;;;;;12.10;4.50;;;13.30;99.90;;;;;;5032711;28;20525;-52
2021/11/20 04:21:32;;;;;;;5.63;3.70;;;13.10;99.90;;;;;;5033295;28;20453;-53
2021/11/20 04:24:00;;;;;;;5.90;4.50;;;13.30;99.90;;;;;;5033496;28;20453;-52
2021/11/20 04:26:46;;;;;;;4.70;3.50;;;13.60;99.90;;;;;;5051315;28;20424;-51
2021/11/20 04:29:14;;;;;;;6.40;3.30;;;13.30;99.90;;;;;;5032791;28;20830;-52
2021/11/20 04:31:41;;;;;;;5.73;3.47;;;13.00;99.90;;;;;;5033300;28;20456;-52
2021/11/20 04:34:08;;;;;;;5.53;3.97;;;12.80;99.90;;;;;;5033358;28;20476;-51
2021/11/20 04:36:35;;;;;;;5.30;3.30;;;13.10;99.90;;;;;;5051462;28;20406;-51
2021/11/20 04:39:04;;;;;;;5.53;3.83;;;13.10;99.90;;;;;;5037198;28;21017;-53
2021/11/20 04:41:31;;;;;;;6.33;3.53;;;13.10;99.90;;;;;;5037373;28;20731;-51
2021/11/20 04:43:59;;;;;;;5.47;3.47;;;13.10;99.90;;;;;;5037510;28;21014;-52
2021/11/20 04:46:26;;;;;;;4.50;3.47;;;12.90;99.90;;;;;;5055093;28;20443;-52
2021/11/20 04:48:54;;;;;;;3.90;3.30;;;12.90;99.90;;;;;;5036871;28;20472;-52
2021/11/20 04:51:22;;;;;;;5.53;3.53;;;13.30;99.90;;;;;;5037359;28;20981;-52
2021/11/20 04:53:49;;;;;;;6.20;4.10;;;12.90;99.90;;;;;;5037257;28;20817;-52
2021/11/20 04:56:18;;;;;;;4.00;3.30;;;13.00;99.90;;;;;;5055155;28;20910;-51
2021/11/20 04:58:46;;;;;;;5.47;3.70;;;13.30;99.90;;;;;;5036513;28;20521;-53
2021/11/20 05:01:15;;;;;;;5.63;3.47;;;12.60;99.90;;;;;;5036840;28;20488;-51
2021/11/20 05:03:44;;;;;;;7.47;4.23;;;12.80;99.90;;;;;;5036962;28;20792;-53
2021/11/20 05:06:12;;;;;;;4.47;3.93;;;13.10;99.90;;;;;;5036589;28;20494;-52
2021/11/20 05:08:41;;;;;;;4.83;3.67;;;13.00;99.90;;;;;;5036134;28;20847;-51
2021/11/20 05:11:09;;;;;;;5.20;3.80;;;12.70;99.90;;;;;;5054332;28;20434;-50
2021/11/20 05:13:54;;;;;;;4.40;3.13;;;13.10;99.90;;;;;;5054462;28;20426;-51
2021/11/20 05:16:23;;;;;;;5.77;3.53;;;13.10;99.90;;;;;;5054365;28;20469;-52
2021/11/20 05:18:50;;;;;;;6.77;3.30;;;13.00;99.90;;;;;;5036118;28;20505;-50
2021/11/20 05:21:22;;;;;;;4.33;3.27;;;13.50;99.90;;;;;;5036422;28;20460;-49
2021/11/20 05:23:49;;;;;;;5.60;3.77;;;13.10;99.90;;;;;;5036103;28;20964;-48
2021/11/20 05:26:17;;;;;;;9.83;4.37;;;12.70;99.90;;;;;;5036100;28;20458;-49
2021/11/20 05:29:03;;;;;;;7.00;3.63;;;13.00;99.90;;;;;;5035504;28;20575;-50
2021/11/20 05:31:34;;;;;;;7.50;4.00;;;12.90;99.90;;;;;;5035999;28;20456;-49
2021/11/20 05:34:02;;;;;;;6.20;3.83;;;12.60;99.90;;;;;;5035887;28;20466;-49
2021/11/20 05:36:31;;;;;;;4.20;3.80;;;13.40;99.90;;;;;;5035566;28;20511;-51
2021/11/20 05:38:59;;;;;;;4.87;4.20;;;13.20;99.90;;;;;;5035160;28;20502;-50
2021/11/20 05:41:27;;;;;;;7.37;3.30;;;13.00;99.90;;;;;;5035878;28;20476;-49
2021/11/20 05:43:53;;;;;;;5.63;3.63;;;13.00;99.90;;;;;;5035669;28;20461;-49
2021/11/20 05:46:30;;;;;;;7.57;3.63;;;13.30;99.90;;;;;;5035835;28;20834;-49
2021/11/20 05:49:00;;;;;;;5.57;3.57;;;13.00;99.90;;;;;;5034652;28;20482;-49
2021/11/20 05:51:26;;;;;;;8.43;3.60;;;13.10;99.90;;;;;;5035529;28;20459;-49
2021/11/20 05:53:53;;;;;;;6.10;3.57;;;13.40;99.90;;;;;;5053261;28;20957;-50
2021/11/20 05:56:20;;;;;;;6.10;4.33;;;13.10;99.90;;;;;;5035453;28;20970;-50
2021/11/20 05:58:48;;;;;;;6.47;4.13;;;13.00;99.90;;;;;;5035014;28;20472;-50
2021/11/20 06:01:17;;;;;;;5.30;3.30;;;13.20;99.90;;;;;;5035515;28;20453;-50
2021/11/20 06:03:47;;;;;;;5.47;4.30;;;12.80;99.90;;;;;;5035641;28;20430;-48
2021/11/20 06:06:15;;;;;;;12.07;4.00;;;13.30;99.90;;;;;;5035100;28;20439;-50
2021/11/20 06:08:42;;;;;;;5.13;3.30;;;13.50;99.90;;;;;;5034453;28;20530;-50
2021/11/20 06:11:11;;;;;;;5.73;4.10;;;13.50;99.90;;;;;;5035139;28;20455;-51
2021/11/20 06:13:40;;;;;;;5.90;3.70;;;13.50;99.90;;;;;;5035322;28;20457;-50
2021/11/20 06:16:13;;;;;;;6.83;3.40;;;13.30;99.90;;;;;;5035085;28;20532;-50
2021/11/20 06:18:41;;;;;;;4.00;3.20;;;13.00;99.90;;;;;;5034391;28;20482;-50
2021/11/20 06:21:09;;;;;;;3.83;3.43;;;13.50;99.90;;;;;;5034930;28;20425;-49
2021/11/20 06:23:39;;;;;;;4.63;3.00;;;13.60;99.90;;;;;;5034870;28;20463;-49
2021/11/20 06:26:11;;;;;;;5.00;3.27;;;12.90;99.90;;;;;;5034796;28;20969;-48
2021/11/20 06:28:39;;;;;;;6.73;3.40;;;13.00;99.90;;;;;;5034311;28;20484;-49
2021/11/20 06:31:13;;;;;;;5.70;3.23;;;12.80;99.90;;;;;;5034939;28;20497;-49
2021/11/20 06:33:41;;;;;;;5.63;3.67;;;13.20;99.90;;;;;;5034891;28;20845;-49
2021/11/20 06:36:27;;;;;;;4.30;2.60;;;12.60;99.90;;;;;;5052563;28;20422;-50
2021/11/20 06:39:05;;;;;;;5.63;2.97;;;13.00;99.90;;;;;;5034528;28;20507;-50
2021/11/20 06:41:34;;;;;;;8.10;3.37;;;13.50;99.90;;;;;;5035023;28;20501;-50
2021/11/20 06:44:01;;;;;;;5.77;4.40;;;13.40;99.90;;;;;;5053252;28;20812;-51
2021/11/20 06:46:27;;;;;;;6.03;3.10;;;13.10;99.90;;;;;;5034735;28;20446;-50
2021/11/20 06:48:56;;;;;;;6.43;3.57;;;13.00;99.90;;;;;;5033950;28;20489;-50
2021/11/20 06:51:29;;;;;;;3.93;3.23;;;13.10;99.90;;;;;;5034373;28;20457;-50
2021/11/20 06:54:17;;;;;;;4.47;3.07;;;12.70;99.90;;;;;;5052239;28;20454;-50
2021/11/20 06:57:47;;;;;;;4.07;3.40;;;13.20;99.90;;;;;;5034278;28;20436;-49
2021/11/20 07:00:33;;;;;;;6.23;3.30;;;12.70;99.90;;;;;;5051406;28;20592;-50
2021/11/20 07:03:13;;;;;;;5.23;3.40;;;13.00;99.90;;;;;;5052246;28;20529;-49
2021/11/20 07:05:45;;;;;;;4.93;3.13;;;13.50;99.90;;;;;;5034188;28;20446;-49
2021/11/20 07:08:14;;;;;;;7.33;3.80;;;13.30;99.90;;;;;;5033594;28;20526;-50
2021/11/20 07:10:43;;;;;;;4.33;3.63;;;12.80;99.90;;;;;;5051619;28;20409;-50
2021/11/20 07:13:11;;;;;;;5.40;3.53;;;13.10;99.90;;;;;;5051797;28;20434;-49
2021/11/20 07:15:38;;;;;;;5.80;3.50;;;12.80;99.90;;;;;;5033844;28;20444;-50
2021/11/20 07:18:05;;;;;;;6.20;3.90;;;13.10;99.90;;;;;;5033213;28;20580;-49
2021/11/20 07:20:47;;;;;;;6.10;4.47;;;13.10;99.90;;;;;;5051600;28;20447;-50
2021/11/20 07:23:17;;;;;;;5.60;4.43;;;13.20;99.90;;;;;;5051397;28;20889;-50
2021/11/20 07:25:46;;;;;;;6.33;4.57;;;13.10;99.90;;;;;;5033558;28;20943;-49
2021/11/20 07:28:13;;;;;;;5.33;4.80;;;13.40;99.90;;;;;;5051202;28;20478;-50
2021/11/20 07:30:42;;;;;;;5.87;5.00;;;13.60;99.90;;;;;;5033552;28;21159;-49
2021/11/20 07:33:10;;;;;;;6.97;5.00;;;13.30;99.90;;;;;;5033823;28;20457;-50
2021/11/20 07:35:40;;;;;;;5.73;5.10;;;12.70;99.90;;;;;;5033665;28;20445;-49
2021/11/20 07:38:10;;;;;;;6.03;4.67;;;13.10;99.90;;;;;;5033020;28;20582;-50
2021/11/20 07:40:40;;;;;;;5.67;5.13;;;12.90;99.90;;;;;;5051731;28;20796;-49
2021/11/20 07:43:10;;;;;;;6.87;5.10;;;13.20;99.90;;;;;;5033744;28;20449;-49
2021/11/20 07:45:56;;;;;;;7.10;5.20;;;13.10;99.90;;;;;;5051960;28;20923;-49
2021/11/20 07:48:25;;;;;;;10.13;6.60;;;13.20;99.90;;;;;;5033061;28;20492;-49
2021/11/20 07:50:56;;;;;;;5.23;4.63;;;13.30;99.90;;;;;;5033580;28;20442;-49
2021/11/20 07:53:36;;;;;;;6.07;5.20;;;13.00;99.90;;;;;;5033679;28;20458;-50
2021/11/20 07:56:04;;;;;;;6.53;5.00;;;13.10;99.90;;;;;;5033773;28;20460;-51
2021/11/20 07:58:33;;;;;;;9.40;5.90;;;12.80;99.90;;;;;;5033203;28;20523;-50
2021/11/20 08:01:02;;;;;;;7.83;6.33;;;13.10;99.90;;;;;;5033494;28;20450;-50
2021/11/20 08:03:29;;;;;;;9.53;6.63;;;13.10;99.90;;;;;;5033559;28;20462;-50
2021/11/20 08:06:02;;;;;;;9.43;5.97;;;13.20;99.90;;;;;;5051462;28;21018;-49
2021/11/20 08:08:32;;;;;;;8.80;6.57;;;13.10;99.90;;;;;;5051057;28;20561;-50
2021/11/20 08:11:09;;;;;;;9.00;6.13;;;12.90;99.90;;;;;;5051218;28;20956;-50
2021/11/20 08:13:39;;;;;;;10.57;6.60;;;13.00;99.90;;;;;;5037142;28;20457;-51
2021/11/20 08:16:24;;;;;;;7.03;6.33;;;13.00;99.90;;;;;;5055418;28;20406;-50
2021/11/20 08:19:10;;;;;;;9.57;7.13;;;13.10;99.90;;;;;;5054852;28;20467;-51
2021/11/20 08:21:50;;;;;;;9.00;6.40;;;13.40;99.90;;;;;;5037122;28;20453;-51
2021/11/20 08:24:20;;;;;;;13.90;6.87;;;13.50;99.90;;;;;;5036932;28;20437;-50
2021/11/20 08:26:47;;;;;;;10.20;7.20;;;13.20;99.90;;;;;;5036655;28;20485;-49
2021/11/20 08:29:19;;;;;;;8.63;6.80;;;13.30;99.90;;;;;;5054346;28;21046;-49
2021/11/20 08:31:50;;;;;;;8.20;6.70;;;13.30;99.90;;;;;;5037022;28;20540;-50
2021/11/20 08:34:27;;;;;;;11.70;6.77;;;13.30;99.90;;;;;;5036844;28;21026;-49
2021/11/20 08:37:11;;;;;;;10.10;7.40;;;12.90;99.90;;;;;;5036663;28;20449;-49
2021/11/20 08:39:58;;;;;;;14.30;7.60;;;13.50;99.90;;;;;;5036607;28;20981;-51
2021/11/20 08:42:26;;;;;;;15.87;7.80;;;12.90;99.90;;;;;;5036585;28;20442;-49
2021/11/20 08:44:54;;;;;;;12.33;8.50;;;13.50;99.90;;;;;;5036884;28;20978;-49
2021/11/20 08:47:28;;;;;;;9.70;7.30;;;13.80;99.90;;;;;;5036502;28;20445;-49
2021/11/20 08:49:55;;;;;;;12.53;7.20;;;13.40;99.90;;;;;;5036295;28;20494;-50
2021/11/20 08:52:22;;;;;;;13.40;7.80;;;13.50;99.90;;;;;;5036432;28;20837;-50
2021/11/20 08:54:56;;;;;;;15.23;8.07;;;13.60;99.90;;;;;;5036609;28;20858;-50
2021/11/20 08:57:22;;;;;;;14.33;10.30;;;13.60;99.90;;;;;;5053885;28;20438;-50
2021/11/20 08:59:55;;;;;;;9.20;7.70;;;13.50;99.90;;;;;;5035828;28;20535;-50
2021/11/20 09:02:49;;;;;;;13.70;7.73;;;13.10;99.90;;;;;;5048542;28;20481;-50
2021/11/20 09:05:20;;;;;;;11.23;6.70;;;13.60;99.90;;;;;;5036164;28;20431;-51
2021/11/20 09:07:51;;;;;;;15.13;7.20;;;13.30;99.90;;;;;;5035800;28;20453;-50
2021/11/20 09:10:23;;;;;;;10.33;6.73;;;13.70;99.90;;;;;;5036255;28;20492;-50
2021/11/20 09:12:55;;;;;;;13.33;7.40;;;13.70;99.90;;;;;;5036047;28;20510;-50
2021/11/20 09:15:28;;;;;;;9.43;7.90;;;13.70;99.90;;;;;;5036009;28;20458;-50
2021/11/20 09:17:55;;;;;;;14.07;9.40;;;13.80;99.90;;;;;;5035401;28;20417;-51
2021/11/20 09:20:32;;;;;;;8.90;6.07;;;13.80;99.90;;;;;;5035691;28;20504;-50
2021/11/20 09:23:01;;;;;;;10.50;6.70;;;14.00;99.90;;;;;;5034833;28;20457;-48
2021/11/20 09:26:04;;;;;;;11.53;7.87;;;13.80;99.90;;;;;;5011354;28;20508;-50
2021/11/20 09:28:31;;;;;;;10.90;6.27;;;13.80;99.90;;;;;;5027530;28;20875;-50
2021/11/20 09:31:02;;;;;;;14.57;6.80;;;13.60;99.90;;;;;;5035635;28;20451;-49
2021/11/20 09:33:30;;;;;;;9.17;6.40;;;13.90;99.90;;;;;;5035596;28;20837;-49
2021/11/20 09:35:57;;;;;;;11.30;6.33;;;13.80;99.90;;;;;;5035592;28;20592;-50
2021/11/20 09:38:42;;;;;;;15.00;6.63;;;13.80;99.90;;;;;;5053169;28;20420;-49
2021/11/20 09:41:15;;;;;;;12.50;6.93;;;13.80;99.90;;;;;;5035070;28;20482;-50
2021/11/20 09:43:44;;;;;;;11.23;5.90;;;13.80;99.90;;;;;;5035483;28;20804;-50
2021/11/20 09:46:16;;;;;;;13.13;5.80;;;13.80;99.90;;;;;;5035366;28;20816;-51
2021/11/20 09:48:49;;;;;;;7.13;5.13;;;13.60;99.90;;;;;;5034391;28;20469;-49
2021/11/20 09:51:23;;;;;;;11.33;6.70;;;13.80;99.90;;;;;;5035037;28;20452;-49
2021/11/20 09:53:52;;;;;;;8.03;5.70;;;13.60;99.90;;;;;;5034848;28;20454;-50
2021/11/20 09:56:37;;;;;;;9.47;6.13;;;13.50;99.90;;;;;;5052868;28;20458;-49
2021/11/20 09:59:13;;;;;;;8.20;4.57;;;13.80;99.90;;;;;;5052474;28;20447;-49
2021/11/20 10:01:51;;;;;;;11.00;5.23;;;13.50;99.90;;;;;;5052749;28;20845;-50
2021/11/20 10:04:27;;;;;;;10.90;5.17;;;13.30;99.90;;;;;;5052847;28;20435;-49
2021/11/20 10:07:07;;;;;;;11.03;5.20;;;13.50;99.90;;;;;;5052952;28;20533;-49
2021/11/20 10:09:34;;;;;;;10.77;5.50;;;13.60;99.90;;;;;;5052144;28;20683;-49
2021/11/20 10:12:14;;;;;;;9.70;5.60;;;13.80;99.90;;;;;;5052664;28;20437;-50
2021/11/20 10:14:43;;;;;;;16.90;5.70;;;13.70;99.90;;;;;;5052822;28;20495;-50
2021/11/20 10:17:19;;;;;;;6.73;5.03;;;13.60;99.90;;;;;;5052340;28;20879;-50
2021/11/20 10:20:03;;;;;;;12.23;5.57;;;13.80;99.90;;;;;;5051557;28;20488;-49
2021/11/20 10:22:34;;;;;;;12.50;5.90;;;13.60;99.90;;;;;;5051960;28;20418;-50
2021/11/20 10:25:23;;;;;;;13.27;6.07;;;13.90;99.90;;;;;;5052491;28;20444;-50
2021/11/20 10:28:01;;;;;;;14.53;6.37;;;13.90;99.90;;;;;;5051554;28;20952;-49
2021/11/20 10:30:37;;;;;;;9.30;5.60;;;13.70;99.90;;;;;;5051944;28;20482;-50
2021/11/20 10:33:10;;;;;;;10.10;5.40;;;13.80;99.90;;;;;;5052188;28;20947;-50
2021/11/20 10:35:41;;;;;;;11.33;5.67;;;13.90;99.90;;;;;;5052022;28;20454;-50
2021/11/20 10:38:14;;;;;;;13.30;6.07;;;13.90;99.90;;;;;;5051781;28;20966;-50
2021/11/20 10:40:46;;;;;;;11.20;7.23;;;13.80;99.90;;;;;;5051964;28;20477;-50
2021/11/20 10:43:23;;;;;;;12.43;7.53;;;14.00;99.90;;;;;;5052166;28;20412;-49
2021/11/20 10:45:53;;;;;;;11.47;6.27;;;14.00;99.90;;;;;;5051985;28;20445;-51
2021/11/20 10:48:35;;;;;;;8.30;5.63;;;13.90;99.90;;;;;;5051331;28;20480;-52
2021/11/20 10:51:30;;;;;;;8.43;6.20;;;14.10;99.90;;;;;;5033904;28;20536;-49
2021/11/20 10:54:32;;;;;;;9.77;5.70;;;13.70;99.90;;;;;;5051753;28;20497;-50
2021/11/20 10:57:04;;;;;;;19.30;7.07;;;13.90;99.90;;;;;;5051692;28;20782;-50
2021/11/20 11:00:06;;;;;;;15.50;7.70;;;13.90;99.90;;;;;;5051280;28;20496;-50
2021/11/20 11:02:49;;;;;;;11.10;7.50;;;13.90;99.90;;;;;;5034069;28;20946;-51
2021/11/20 11:08:28;;;;;;;8.77;6.93;;;14.10;99.90;;;;;;5149979;27;20567;-52
2021/11/20 11:10:58;;;;;;;11.27;7.67;;;14.30;99.90;;;;;;5150349;27;20443;-50
2021/11/20 11:13:48;;;;;;;11.87;6.60;;;14.30;99.90;;;;;;5150531;27;20983;-51
2021/11/20 11:16:21;;;;;;;9.33;6.63;;;14.20;99.90;;;;;;5150261;27;20445;-50
2021/11/20 11:18:50;;;;;;;12.80;7.27;;;14.10;99.90;;;;;;5156655;22;20486;-50
2021/11/20 11:21:43;;;;;;;11.27;7.67;;;14.60;99.90;;;;;;5070278;28;20420;-49
2021/11/20 11:24:34;;;;;;;12.27;8.20;;;14.80;99.90;;;;;;5087936;28;20437;-50
2021/11/20 11:27:10;;;;;;;14.93;8.23;;;14.50;99.90;;;;;;5088065;28;21003;-50
2021/11/20 11:29:48;;;;;;;9.13;7.93;;;14.20;99.90;;;;;;5069362;28;20464;-50
2021/11/20 11:32:16;;;;;;;10.93;7.20;;;14.40;99.90;;;;;;5088162;28;20440;-50
2021/11/20 11:34:50;;;;;;;9.13;8.20;;;14.40;99.90;;;;;;5069991;28;20453;-50
2021/11/20 11:37:25;;;;;;;10.37;8.17;;;14.60;99.90;;;;;;5087872;28;20448;-49
2021/11/20 11:39:59;;;;;;;15.60;8.00;;;14.30;99.90;;;;;;5087659;28;20539;-50
2021/11/20 11:42:45;;;;;;;11.83;8.80;;;14.00;99.90;;;;;;5087708;28;20444;-50
2021/11/20 11:45:57;;;;;;;10.50;8.60;;;14.20;99.90;;;;;;5087253;28;20535;-49
2021/11/20 11:48:41;;;;;;;10.30;8.30;;;14.30;99.90;;;;;;5004082;28;20452;-50
2021/11/20 11:51:30;;;;;;;11.43;9.30;;;13.80;99.90;;;;;;5078322;28;20523;-50
2021/11/20 11:54:04;;;;;;;12.50;8.50;;;14.20;99.90;;;;;;5087011;28;20810;-51
2021/11/20 11:56:34;;;;;;;13.43;8.37;;;14.10;99.90;;;;;;5087723;28;20432;-51
2021/11/20 11:59:19;;;;;;;16.47;9.37;;;14.10;99.90;;;;;;5087174;28;20453;-50
2021/11/20 12:02:04;;;;;;;21.30;8.90;;;14.00;99.90;;;;;;5087258;28;20433;-51
2021/11/20 12:04:35;;;;;;;13.37;9.50;;;13.90;99.90;;;;;;5087200;28;20495;-50
2021/11/20 12:07:26;;;;;;;11.87;8.57;;;13.80;99.90;;;;;;5087331;28;20485;-51
2021/11/20 12:10:06;;;;;;;11.73;8.93;;;14.20;99.90;;;;;;5086917;28;20436;-51
2021/11/20 12:12:39;;;;;;;17.00;8.20;;;14.00;99.90;;;;;;5086990;28;20433;-50
2021/11/20 12:15:20;;;;;;;10.60;8.40;;;14.20;99.90;;;;;;5087114;28;20511;-51
2021/11/20 12:18:01;;;;;;;13.37;9.13;;;14.20;99.90;;;;;;5082243;28;20406;-51
2021/11/20 12:20:38;;;;;;;9.20;8.20;;;14.50;99.90;;;;;;5073527;28;20442;-49
2021/11/20 12:23:25;;;;;;;13.13;10.33;;;14.30;99.90;;;;;;5073214;28;20437;-51
2021/11/20 12:25:56;;;;;;;14.20;8.63;;;14.40;99.90;;;;;;5073716;28;20490;-50
2021/11/20 12:28:37;;;;;;;14.73;9.10;;;14.50;99.90;;;;;;5072726;28;20485;-51
2021/11/20 12:31:28;;;;;;;11.03;9.27;;;14.60;99.90;;;;;;5073583;28;20431;-50
2021/11/20 12:34:05;;;;;;;15.50;10.47;;;14.30;99.90;;;;;;5072748;28;20834;-50
2021/11/20 12:36:42;;;;;;;13.37;10.00;;;14.50;99.90;;;;;;5073426;28;20426;-51
2021/11/20 12:39:33;;;;;;;10.93;9.67;;;14.80;99.90;;;;;;5072930;28;20467;-50
2021/11/20 12:42:20;;;;;;;11.67;9.00;;;14.30;99.90;;;;;;5061577;28;20450;-51
2021/11/20 12:45:10;;;;;;;15.27;10.50;;;14.50;99.90;;;;;;5073490;28;20432;-50
2021/11/20 12:47:52;;;;;;;16.47;11.57;;;14.40;99.90;;;;;;5073216;28;20987;-50
2021/11/20 12:50:32;;;;;;;14.00;9.23;;;14.70;99.90;;;;;;5072992;28;20453;-51
2021/11/20 12:53:03;;;;;;;11.03;9.80;;;14.40;99.90;;;;;;5073204;28;20429;-51
2021/11/20 12:55:39;;;;;;;12.63;9.90;;;14.00;99.90;;;;;;5073222;28;20512;-49
2021/11/20 12:58:12;;;;;;;11.83;9.53;;;14.30;99.90;;;;;;5054645;28;20485;-50
2021/11/20 13:00:42;;;;;;;12.37;10.90;;;14.60;99.90;;;;;;5072632;28;20431;-51
2021/11/20 13:03:37;;;;;;;11.13;9.47;;;14.60;99.90;;;;;;5072704;28;20438;-50
2021/11/20 13:06:07;;;;;;;13.10;10.43;;;14.10;99.90;;;;;;5072906;28;20449;-51
2021/11/20 13:08:37;;;;;;;15.80;10.40;;;14.20;99.90;;;;;;5071959;28;20486;-50
2021/11/20 13:11:09;;;;;;;11.87;9.63;;;14.20;99.90;;;;;;5072691;28;20433;-51
2021/11/20 13:13:44;;;;;;;13.13;11.30;;;14.10;99.90;;;;;;5073094;28;20525;-50
2021/11/20 13:16:44;;;;;;;12.60;10.20;;;14.20;99.90;;;;;;5072595;28;20772;-51
2021/11/20 13:19:20;;;;;;;10.90;9.83;;;14.50;99.90;;;;;;5071974;28;20497;-50